createdAt,value
2023-04-10T00:00:07.311Z,96.50
2023-04-10T00:02:38.231Z,96.50
2023-04-10T00:05:08.293Z,96.50
2023-04-10T00:07:36.893Z,96.50
2023-04-10T00:10:05.918Z,96.50
2023-04-10T00:12:34.511Z,96.60
2023-04-10T00:15:03.026Z,96.70
2023-04-10T00:17:31.614Z,96.70
2023-04-10T00:20:02.237Z,96.80
2023-04-10T00:22:30.831Z,97.00
2023-04-10T00:24:59.335Z,97.00
2023-04-10T00:27:27.842Z,97.10
2023-04-10T00:29:56.459Z,97.20
2023-04-10T00:32:25.415Z,97.30
2023-04-10T00:34:54.148Z,97.40
2023-04-10T00:37:24.050Z,97.50
2023-04-10T00:39:52.574Z,97.60
2023-04-10T00:42:21.119Z,97.60
2023-04-10T00:44:49.664Z,97.60
2023-04-10T00:47:18.545Z,97.70
2023-04-10T00:49:47.204Z,97.80
2023-04-10T00:52:15.775Z,97.80
2023-04-10T00:54:46.653Z,97.90
2023-04-10T00:57:15.548Z,98.30
2023-04-10T00:59:44.100Z,98.00
2023-04-10T01:02:13.285Z,98.30
2023-04-10T01:04:42.468Z,98.10
2023-04-10T01:07:18.838Z,98.10
2023-04-10T01:10:00.203Z,98.20
2023-04-10T01:12:49.175Z,98.20
2023-04-10T01:15:21.059Z,98.20
2023-04-10T01:17:55.037Z,98.20
2023-04-10T01:20:25.757Z,98.20
2023-04-10T01:23:10.627Z,98.20
2023-04-10T01:25:45.548Z,98.20
2023-04-10T01:28:31.831Z,98.20
2023-04-10T01:31:03.668Z,98.30
2023-04-10T01:33:36.785Z,98.30
2023-04-10T01:36:08.460Z,98.30
2023-04-10T01:38:39.960Z,98.30
2023-04-10T01:41:09.237Z,98.40
2023-04-10T01:43:38.925Z,98.40
2023-04-10T01:46:09.001Z,98.40
2023-04-10T01:48:37.786Z,98.50
2023-04-10T01:51:11.643Z,98.50
2023-04-10T01:53:41.106Z,98.50
2023-04-10T01:56:10.763Z,98.60
2023-04-10T01:58:45.659Z,98.60
2023-04-10T02:01:29.121Z,98.60
2023-04-10T02:03:59.137Z,98.70
2023-04-10T02:06:42.002Z,98.70
2023-04-10T02:09:18.686Z,98.70
2023-04-10T02:11:52.895Z,98.80
2023-04-10T02:14:23.717Z,98.80
2023-04-10T02:16:56.387Z,98.80
2023-04-10T02:19:28.008Z,98.80
2023-04-10T02:21:58.066Z,98.90
2023-04-10T02:24:28.564Z,98.80
2023-04-10T02:26:57.859Z,98.80
2023-04-10T02:29:26.683Z,98.80
2023-04-10T02:31:57.428Z,98.90
2023-04-10T02:34:26.038Z,98.90
2023-04-10T02:36:54.785Z,98.90
2023-04-10T02:39:23.270Z,98.90
2023-04-10T02:41:53.716Z,98.90
2023-04-10T02:44:22.403Z,98.90
2023-04-10T02:46:51.103Z,99.00
2023-04-10T02:49:21.291Z,99.30
2023-04-10T02:51:49.894Z,99.00
2023-04-10T02:54:18.404Z,99.00
2023-04-10T02:56:47.231Z,99.00
2023-04-10T02:59:15.788Z,99.10
2023-04-10T03:01:44.768Z,99.10
2023-04-10T03:04:13.738Z,99.10
2023-04-10T03:06:44.946Z,99.10
2023-04-10T03:09:13.512Z,99.10
2023-04-10T03:11:42.025Z,99.10
2023-04-10T03:14:10.889Z,99.10
2023-04-10T03:16:39.504Z,99.10
2023-04-10T03:19:08.100Z,99.10
2023-04-10T03:21:36.616Z,99.20
2023-04-10T03:24:08.069Z,99.20
2023-04-10T03:26:36.608Z,99.20
2023-04-10T03:29:05.146Z,99.20
2023-04-10T03:31:36.030Z,99.20
2023-04-10T03:34:04.642Z,99.10
2023-04-10T03:36:33.183Z,99.20
2023-04-10T03:39:01.743Z,99.20
2023-04-10T03:41:32.295Z,99.20
2023-04-10T03:44:03.282Z,99.20
2023-04-10T03:46:31.895Z,99.20
2023-04-10T03:49:01.546Z,99.20
2023-04-10T03:51:32.384Z,99.20
2023-04-10T03:54:00.937Z,99.20
2023-04-10T03:56:30.311Z,99.20
2023-04-10T03:59:00.866Z,99.30
2023-04-10T04:01:30.634Z,99.30
2023-04-10T04:04:07.921Z,99.60
2023-04-10T04:07:05.600Z,99.30
2023-04-10T04:10:13.148Z,99.20
2023-04-10T04:12:52.339Z,99.20
2023-04-10T04:15:30.044Z,99.30
2023-04-10T04:18:16.260Z,99.30
2023-04-10T04:20:49.711Z,99.30
2023-04-10T04:23:33.154Z,99.40
2023-04-10T04:26:33.891Z,99.30
2023-04-10T04:29:15.605Z,99.30
2023-04-10T04:32:04.973Z,99.40
2023-04-10T04:34:42.824Z,99.40
2023-04-10T04:37:23.527Z,99.40
2023-04-10T04:40:18.641Z,99.40
2023-04-10T04:43:10.038Z,99.40
2023-04-10T04:45:56.647Z,99.40
2023-04-10T04:49:01.669Z,99.40
2023-04-10T04:51:42.591Z,99.30
2023-04-10T04:54:29.984Z,99.40
2023-04-10T04:57:15.271Z,99.30
2023-04-10T05:00:02.002Z,99.30
2023-04-10T05:02:49.360Z,99.30
2023-04-10T05:05:36.700Z,99.30
2023-04-10T05:08:14.728Z,99.30
2023-04-10T05:11:01.223Z,99.30
2023-04-10T05:13:55.983Z,99.30
2023-04-10T05:16:53.518Z,99.40
2023-04-10T05:19:42.020Z,99.40
2023-04-10T05:22:23.135Z,99.50
2023-04-10T05:25:14.833Z,99.80
2023-04-10T05:28:04.396Z,99.50
2023-04-10T05:30:56.538Z,99.60
2023-04-10T05:33:47.963Z,99.70
2023-04-10T05:36:25.687Z,99.80
2023-04-10T05:39:06.262Z,99.90
2023-04-10T05:41:41.492Z,99.90
2023-04-10T05:44:31.344Z,99.90
2023-04-10T05:47:04.925Z,99.90
2023-04-10T05:49:52.104Z,99.90
2023-04-10T05:52:49.457Z,99.90
2023-04-10T05:55:42.118Z,99.90
2023-04-10T05:58:41.959Z,99.90
2023-04-10T06:01:19.088Z,99.90
2023-04-10T06:04:01.087Z,99.90
2023-04-10T06:06:30.938Z,99.90
2023-04-10T06:08:59.533Z,99.90
2023-04-10T06:11:29.519Z,99.90
2023-04-10T06:13:59.490Z,99.90
2023-04-10T06:16:35.426Z,99.90
2023-04-10T06:19:04.119Z,99.90
2023-04-10T06:21:32.850Z,99.90
2023-04-10T06:24:01.596Z,99.90
2023-04-10T06:26:31.568Z,99.90
2023-04-10T06:29:00.403Z,99.90
2023-04-10T06:31:28.998Z,99.90
2023-04-10T06:33:57.614Z,99.90
2023-04-10T06:36:27.086Z,99.90
2023-04-10T06:39:02.720Z,99.90
2023-04-10T06:41:32.770Z,99.90
2023-04-10T06:44:14.817Z,99.90
2023-04-10T06:46:48.011Z,99.90
2023-04-10T06:49:16.805Z,99.90
2023-04-10T06:51:48.406Z,99.90
2023-04-10T06:54:17.509Z,99.90
2023-04-10T06:56:47.375Z,99.90
2023-04-10T06:59:15.877Z,99.90
2023-04-10T07:01:44.501Z,99.90
2023-04-10T07:04:13.611Z,99.90
2023-04-10T07:06:42.509Z,99.90
2023-04-10T07:09:11.084Z,99.90
2023-04-10T07:11:39.579Z,99.90
2023-04-10T07:14:09.596Z,99.90
2023-04-10T07:16:38.363Z,99.90
2023-04-10T07:19:07.038Z,99.90
2023-04-10T07:21:35.608Z,99.90
2023-04-10T07:24:04.248Z,99.90
2023-04-10T07:26:32.742Z,99.90
2023-04-10T07:29:01.805Z,99.90
2023-04-10T07:31:31.938Z,99.90
2023-04-10T07:34:00.730Z,99.90
2023-04-10T07:36:29.307Z,99.90
2023-04-10T07:38:57.882Z,99.90
2023-04-10T07:41:26.611Z,99.90
2023-04-10T07:43:55.178Z,99.90
2023-04-10T07:46:23.938Z,99.90
2023-04-10T07:48:55.538Z,99.90
2023-04-10T07:51:24.868Z,99.90
2023-04-10T07:53:53.438Z,99.90
2023-04-10T07:56:22.717Z,99.90
2023-04-10T07:58:53.375Z,99.90
2023-04-10T08:01:22.087Z,99.90
2023-04-10T08:03:50.690Z,99.90
2023-04-10T08:06:20.798Z,99.90
2023-04-10T08:08:49.407Z,99.90
2023-04-10T08:11:26.270Z,99.90
2023-04-10T08:13:55.296Z,99.90
2023-04-10T08:16:26.017Z,99.90
2023-04-10T08:18:55.337Z,99.90
2023-04-10T08:21:27.335Z,99.90
2023-04-10T08:23:57.371Z,99.90
2023-04-10T08:26:28.743Z,99.90
2023-04-10T08:28:59.760Z,99.90
2023-04-10T08:31:30.056Z,99.90
2023-04-10T08:33:59.758Z,99.90
2023-04-10T08:36:31.447Z,99.90
2023-04-10T08:39:00.005Z,99.90
2023-04-10T08:41:28.599Z,99.90
2023-04-10T08:43:58.388Z,99.90
2023-04-10T08:46:27.365Z,99.90
2023-04-10T08:49:02.881Z,99.90
2023-04-10T08:51:38.713Z,99.90
2023-04-10T08:54:09.003Z,99.90
2023-04-10T08:56:40.422Z,99.90
2023-04-10T08:59:09.940Z,99.90
2023-04-10T09:01:38.632Z,99.90
2023-04-10T09:04:07.764Z,99.90
2023-04-10T09:06:37.770Z,99.90
2023-04-10T09:09:07.081Z,99.90
2023-04-10T09:12:00.762Z,99.90
2023-04-10T09:14:31.902Z,99.90
2023-04-10T09:17:18.381Z,99.90
2023-04-10T09:19:48.364Z,99.90
2023-04-10T09:22:18.531Z,99.90
2023-04-10T09:24:48.435Z,99.90
2023-04-10T09:27:32.202Z,99.90
2023-04-10T09:30:01.212Z,99.90
2023-04-10T09:32:41.768Z,99.90
2023-04-10T09:35:11.875Z,99.90
2023-04-10T09:37:43.067Z,99.90
2023-04-10T09:40:21.930Z,99.90
2023-04-10T09:42:50.627Z,99.90
2023-04-10T09:45:20.482Z,99.90
2023-04-10T09:48:03.889Z,99.90
2023-04-10T09:50:39.296Z,99.90
2023-04-10T09:53:10.415Z,99.90
2023-04-10T09:55:39.267Z,99.90
2023-04-10T09:58:08.628Z,99.90
2023-04-10T10:00:42.545Z,99.90
2023-04-10T10:03:12.867Z,99.90
2023-04-10T10:05:43.247Z,99.90
2023-04-10T10:08:15.393Z,99.90
2023-04-10T10:10:47.923Z,99.90
2023-04-10T10:13:25.510Z,99.90
2023-04-10T10:16:01.501Z,99.90
2023-04-10T10:18:41.313Z,99.90
2023-04-10T10:21:10.645Z,99.90
2023-04-10T10:23:43.265Z,99.90
2023-04-10T10:26:12.316Z,99.90
2023-04-10T10:28:42.138Z,99.90
2023-04-10T10:31:12.249Z,99.90
2023-04-10T10:33:42.116Z,99.90
2023-04-10T10:36:13.905Z,99.90
2023-04-10T10:38:56.205Z,99.90
2023-04-10T10:41:31.499Z,99.90
2023-04-10T10:44:10.295Z,99.90
2023-04-10T10:46:45.743Z,99.90
2023-04-10T10:49:14.478Z,99.90
2023-04-10T10:51:48.156Z,99.90
2023-04-10T10:54:34.062Z,99.90
2023-04-10T10:57:06.408Z,99.90
2023-04-10T10:59:57.838Z,99.90
2023-04-10T11:02:27.188Z,99.90
2023-04-10T11:04:55.888Z,99.90
2023-04-10T11:08:08.710Z,99.90
2023-04-10T11:11:06.086Z,99.90
2023-04-10T11:13:35.739Z,99.90
2023-04-10T11:16:07.196Z,99.90
2023-04-10T11:19:13.993Z,99.90
2023-04-10T11:22:07.962Z,99.90
2023-04-10T11:24:58.202Z,99.90
2023-04-10T11:27:44.867Z,99.90
2023-04-10T11:30:34.329Z,99.90
2023-04-10T11:33:04.589Z,99.90
2023-04-10T11:35:34.028Z,99.90
2023-04-10T11:38:13.303Z,99.90
2023-04-10T11:40:59.095Z,99.90
2023-04-10T11:43:29.100Z,99.90
2023-04-10T11:46:06.285Z,99.90
2023-04-10T11:48:36.757Z,99.90
2023-04-10T11:51:09.936Z,99.90
2023-04-10T11:53:39.218Z,99.90
2023-04-10T11:56:15.928Z,99.90
2023-04-10T11:58:46.047Z,99.90
2023-04-10T12:01:15.617Z,99.90
2023-04-10T12:03:46.127Z,99.90
2023-04-10T12:06:16.855Z,99.90
2023-04-10T12:08:47.603Z,99.90
2023-04-10T12:11:20.388Z,99.90
2023-04-10T12:13:53.675Z,99.90
2023-04-10T12:16:22.648Z,99.90
2023-04-10T12:18:52.637Z,99.90
2023-04-10T12:21:22.567Z,99.90
2023-04-10T12:23:52.073Z,99.90
2023-04-10T12:26:20.828Z,99.90
2023-04-10T12:28:54.887Z,99.90
2023-04-10T12:31:29.338Z,99.90
2023-04-10T12:33:58.624Z,99.90
2023-04-10T12:36:29.758Z,99.90
2023-04-10T12:38:59.085Z,99.90
2023-04-10T12:41:30.648Z,99.90
2023-04-10T12:44:10.827Z,99.90
2023-04-10T12:46:39.932Z,99.90
2023-04-10T12:49:13.202Z,99.90
2023-04-10T12:51:46.347Z,99.90
2023-04-10T12:54:30.207Z,99.90
2023-04-10T12:56:59.150Z,99.90
2023-04-10T12:59:30.081Z,99.90
2023-04-10T13:01:58.799Z,99.90
2023-04-10T13:04:28.346Z,99.90
2023-04-10T13:06:57.062Z,99.90
2023-04-10T13:09:25.578Z,99.90
2023-04-10T13:11:54.072Z,99.90
2023-04-10T13:14:22.697Z,99.90
2023-04-10T13:16:52.631Z,99.90
2023-04-10T13:19:21.212Z,99.90
2023-04-10T13:21:50.721Z,99.90
2023-04-10T13:24:19.285Z,99.90
2023-04-10T13:26:47.847Z,99.90
2023-04-10T13:29:16.383Z,99.90
2023-04-10T13:31:44.962Z,99.90
2023-04-10T13:34:15.004Z,99.90
2023-04-10T13:36:43.783Z,99.90
2023-04-10T13:39:12.488Z,99.90
2023-04-10T13:41:41.018Z,99.90
2023-04-10T13:44:09.553Z,99.90
2023-04-10T13:46:38.069Z,99.90
2023-04-10T13:49:06.661Z,99.90
2023-04-10T13:51:36.553Z,99.90
2023-04-10T13:54:05.726Z,99.90
2023-04-10T13:56:34.236Z,99.90
2023-04-10T13:59:02.741Z,99.90
2023-04-10T14:01:31.380Z,99.90
2023-04-10T14:04:00.127Z,99.90
2023-04-10T14:06:28.737Z,99.90
2023-04-10T14:08:58.665Z,99.90
2023-04-10T14:11:27.259Z,99.90
2023-04-10T14:13:57.548Z,99.90
2023-04-10T14:16:26.257Z,99.90
2023-04-10T14:18:55.549Z,99.90
2023-04-10T14:21:24.314Z,99.90
2023-04-10T14:23:52.898Z,99.90
2023-04-10T14:26:23.333Z,99.90
2023-04-10T14:28:52.377Z,99.90
2023-04-10T14:31:21.351Z,99.90
2023-04-10T14:33:50.593Z,99.90
2023-04-10T14:36:19.178Z,99.90
2023-04-10T14:38:47.759Z,99.90
2023-04-10T14:41:16.391Z,99.90
2023-04-10T14:43:46.284Z,99.90
2023-04-10T14:46:14.846Z,99.90
2023-04-10T14:48:43.383Z,99.90
2023-04-10T14:51:12.925Z,99.90
2023-04-10T14:53:41.538Z,99.90
2023-04-10T14:56:13.824Z,99.90
2023-04-10T14:58:43.862Z,99.90
2023-04-10T15:01:14.293Z,99.90
2023-04-10T15:03:43.040Z,99.90
2023-04-10T15:06:11.758Z,99.90
2023-04-10T15:08:40.287Z,99.90
2023-04-10T15:11:08.779Z,99.90
2023-04-10T15:13:37.783Z,99.90
2023-04-10T15:16:08.035Z,99.90
2023-04-10T15:18:37.959Z,99.90
2023-04-10T15:21:07.213Z,99.90
2023-04-10T15:23:36.131Z,99.90
2023-04-10T15:26:04.885Z,99.90
2023-04-10T15:28:33.399Z,99.90
2023-04-10T15:31:02.266Z,99.90
2023-04-10T15:33:31.127Z,99.90
2023-04-10T15:36:01.178Z,99.90
2023-04-10T15:38:29.721Z,99.90
2023-04-10T15:40:58.457Z,99.90
2023-04-10T15:43:27.080Z,99.90
2023-04-10T15:45:56.153Z,99.90
2023-04-10T15:48:24.871Z,99.90
2023-04-10T15:50:53.492Z,99.90
2023-04-10T15:53:23.364Z,99.90
2023-04-10T15:55:51.899Z,99.90
2023-04-10T15:58:20.414Z,99.90
2023-04-10T16:00:48.993Z,99.90
2023-04-10T16:03:17.668Z,99.90
2023-04-10T16:05:46.328Z,99.90
2023-04-10T16:08:14.901Z,99.90
2023-04-10T16:10:44.845Z,99.90
2023-04-10T16:13:13.680Z,99.90
2023-04-10T16:15:42.274Z,99.90
2023-04-10T16:18:10.837Z,99.90
2023-04-10T16:20:41.439Z,99.90
2023-04-10T16:23:10.139Z,99.90
2023-04-10T16:25:38.709Z,99.90
2023-04-10T16:28:08.793Z,99.90
2023-04-10T16:30:39.563Z,99.90
2023-04-10T16:33:08.370Z,99.90
2023-04-10T16:35:37.189Z,99.90
2023-04-10T16:38:05.841Z,99.90
2023-04-10T16:40:34.579Z,99.90
2023-04-10T16:43:03.130Z,99.90
2023-04-10T16:45:33.048Z,99.90
2023-04-10T16:48:01.764Z,99.90
2023-04-10T16:50:30.514Z,99.90
2023-04-10T16:52:59.365Z,99.90
2023-04-10T16:55:27.932Z,99.90
2023-04-10T16:57:56.432Z,99.90
2023-04-10T17:00:24.949Z,99.90
2023-04-10T17:02:54.920Z,99.90
2023-04-10T17:05:23.599Z,99.90
2023-04-10T17:07:52.161Z,99.90
2023-04-10T17:10:20.733Z,99.90
2023-04-10T17:12:49.288Z,99.90
2023-04-10T17:15:17.896Z,99.90
2023-04-10T17:17:46.509Z,99.90
2023-04-10T17:20:16.686Z,99.90
2023-04-10T17:22:45.337Z,99.90
2023-04-10T17:25:13.957Z,99.90
2023-04-10T17:27:42.620Z,99.90
2023-04-10T17:30:13.352Z,99.90
2023-04-10T17:32:41.949Z,99.90
2023-04-10T17:35:10.776Z,99.90
2023-04-10T17:37:40.610Z,99.90
2023-04-10T17:40:10.229Z,99.90
2023-04-10T17:42:38.822Z,99.90
2023-04-10T17:45:08.538Z,99.90
2023-04-10T17:47:37.444Z,99.90
2023-04-10T17:50:07.021Z,99.90
2023-04-10T17:52:35.796Z,99.90
2023-04-10T17:55:06.432Z,99.90
2023-04-10T17:57:35.013Z,99.90
2023-04-10T18:00:08.793Z,99.90
2023-04-10T18:02:37.555Z,99.90
2023-04-10T18:05:08.465Z,99.90
2023-04-10T18:07:37.039Z,99.90
2023-04-10T18:10:10.567Z,99.90
2023-04-10T18:12:41.395Z,99.90
2023-04-10T18:15:10.534Z,99.90
2023-04-10T18:17:39.494Z,99.90
2023-04-10T18:20:08.701Z,99.90
2023-04-10T18:22:37.364Z,99.90
2023-04-10T18:25:08.734Z,99.90
2023-04-10T18:27:37.395Z,99.90
2023-04-10T18:30:07.098Z,99.90
2023-04-10T18:32:35.695Z,99.90
2023-04-10T18:35:04.537Z,99.90
2023-04-10T18:37:34.339Z,99.90
2023-04-10T18:40:09.817Z,99.90
2023-04-10T18:42:43.670Z,99.90
2023-04-10T18:45:13.433Z,99.90
2023-04-10T18:47:42.067Z,99.90
2023-04-10T18:50:11.693Z,99.90
2023-04-10T18:52:40.286Z,99.90
2023-04-10T18:55:09.582Z,99.90
2023-04-10T18:57:38.115Z,99.90
2023-04-10T19:00:11.323Z,99.90
2023-04-10T19:02:40.375Z,99.90
2023-04-10T19:05:14.118Z,99.90
2023-04-10T19:07:49.833Z,99.90
2023-04-10T19:10:25.494Z,99.90
2023-04-10T19:12:56.085Z,99.90
2023-04-10T19:15:26.245Z,99.90
2023-04-10T19:17:55.550Z,99.90
2023-04-10T19:20:50.248Z,99.90
2023-04-10T19:23:12.906Z,99.90
2023-04-10T19:25:42.535Z,99.90
2023-04-10T19:28:11.154Z,99.90
2023-04-10T19:30:41.084Z,99.90
2023-04-10T19:33:09.608Z,99.90
2023-04-10T19:35:38.196Z,99.90
2023-04-10T19:38:06.803Z,99.90
2023-04-10T19:40:36.686Z,99.90
2023-04-10T19:43:05.253Z,99.90
2023-04-10T19:45:37.805Z,99.90
2023-04-10T19:48:09.605Z,99.90
2023-04-10T19:50:38.256Z,99.90
2023-04-10T19:53:07.202Z,99.90
2023-04-10T19:55:36.016Z,99.90
2023-04-10T19:58:04.640Z,99.90
2023-04-10T20:00:33.258Z,99.90
2023-04-10T20:03:01.903Z,99.90
2023-04-10T20:05:32.003Z,99.90
2023-04-10T20:08:00.547Z,99.90
2023-04-10T20:10:29.144Z,99.90
2023-04-10T20:12:57.753Z,99.90
2023-04-10T20:15:26.318Z,99.90
2023-04-10T20:17:54.876Z,99.90
2023-04-10T20:20:23.625Z,99.90
2023-04-10T20:22:53.547Z,99.90
2023-04-10T20:25:22.111Z,99.90
2023-04-10T20:27:50.861Z,99.90
2023-04-10T20:30:19.392Z,99.90
2023-04-10T20:32:47.958Z,99.90
2023-04-10T20:35:16.621Z,99.90
2023-04-10T20:37:45.144Z,99.90
2023-04-10T20:40:15.741Z,99.90
2023-04-10T20:42:44.731Z,99.90
2023-04-10T20:45:13.785Z,99.90
2023-04-10T20:47:42.422Z,99.90
2023-04-10T20:50:12.728Z,99.90
2023-04-10T20:52:41.710Z,99.90
2023-04-10T20:55:10.782Z,99.90
2023-04-10T20:57:41.417Z,99.90
2023-04-10T21:00:11.270Z,99.90
2023-04-10T21:02:39.969Z,99.90
2023-04-10T21:05:09.345Z,99.90
2023-04-10T21:07:37.907Z,99.90
2023-04-10T21:10:06.997Z,99.90
2023-04-10T21:12:35.571Z,99.90
2023-04-10T21:15:06.116Z,99.90
2023-04-10T21:17:34.841Z,99.90
2023-04-10T21:20:04.243Z,99.90
2023-04-10T21:22:32.772Z,99.90
2023-04-10T21:25:01.305Z,99.90
2023-04-10T21:27:29.789Z,99.90
2023-04-10T21:29:58.544Z,99.90
2023-04-10T21:32:28.472Z,99.90
2023-04-10T21:34:57.060Z,99.90
2023-04-10T21:37:26.413Z,99.90
2023-04-10T21:39:55.055Z,99.90
2023-04-10T21:42:23.625Z,99.90
2023-04-10T21:44:52.121Z,99.90
2023-04-10T21:47:20.660Z,99.90
2023-04-10T21:49:50.516Z,99.90
2023-04-10T21:52:19.084Z,99.90
2023-04-10T21:54:47.646Z,99.90
2023-04-10T21:57:16.191Z,99.90
2023-04-10T21:59:44.732Z,99.90
2023-04-10T22:02:13.365Z,99.90
2023-04-10T22:04:53.949Z,99.90
2023-04-10T22:07:24.773Z,99.90
2023-04-10T22:09:53.951Z,99.90
2023-04-10T22:12:22.510Z,99.90
2023-04-10T22:14:51.806Z,99.90
2023-04-10T22:17:20.529Z,99.90
2023-04-10T22:19:49.075Z,99.90
2023-04-10T22:22:18.749Z,99.90
2023-04-10T22:24:49.754Z,99.90
2023-04-10T22:27:18.339Z,99.90
2023-04-10T22:29:56.244Z,99.90
2023-04-10T22:32:31.296Z,99.90
2023-04-10T22:34:59.999Z,99.90
2023-04-10T22:37:29.894Z,99.90
2023-04-10T22:40:00.786Z,99.90
2023-04-10T22:42:31.812Z,99.90
2023-04-10T22:45:00.684Z,99.90
2023-04-10T22:47:29.260Z,99.90
2023-04-10T22:49:57.779Z,99.90
2023-04-10T22:52:26.381Z,99.90
2023-04-10T22:54:54.945Z,99.90
2023-04-10T22:57:24.883Z,99.90
2023-04-10T22:59:53.390Z,99.90
2023-04-10T23:02:22.039Z,99.90
2023-04-10T23:04:50.657Z,99.90
2023-04-10T23:07:19.316Z,99.90
2023-04-10T23:09:47.863Z,99.90
2023-04-10T23:12:16.449Z,99.90
2023-04-10T23:14:46.397Z,99.90
2023-04-10T23:17:14.885Z,99.90
2023-04-10T23:19:43.406Z,99.90
2023-04-10T23:22:12.678Z,99.90
2023-04-10T23:24:41.276Z,99.90
2023-04-10T23:27:09.790Z,99.90
2023-04-10T23:29:38.318Z,99.90
2023-04-10T23:32:08.335Z,99.90
2023-04-10T23:34:36.900Z,99.90
2023-04-10T23:37:05.440Z,99.90
2023-04-10T23:39:33.990Z,99.90
2023-04-10T23:42:03.193Z,99.90
2023-04-10T23:44:31.758Z,99.90
2023-04-10T23:47:00.400Z,99.90
2023-04-10T23:49:30.381Z,99.90
2023-04-10T23:51:59.026Z,99.90
2023-04-10T23:54:27.710Z,99.90
2023-04-10T23:56:56.274Z,99.90
2023-04-10T23:59:24.773Z,99.90
